createdAt,value
2023-05-12T00:00:25.644Z,15.6480
2023-05-12T00:01:26.699Z,15.6371
2023-05-12T00:02:28.432Z,15.6857
2023-05-12T00:03:30.589Z,15.7815
2023-05-12T00:04:31.727Z,15.7959
2023-05-12T00:05:33.269Z,15.7118
2023-05-12T00:06:34.935Z,15.6366
2023-05-12T00:07:36.614Z,15.6173
2023-05-12T00:08:38.237Z,15.6310
2023-05-12T00:09:39.888Z,15.6606
2023-05-12T00:10:41.494Z,15.7124
2023-05-12T00:11:43.163Z,15.8036
2023-05-12T00:12:44.790Z,15.8207
2023-05-12T00:13:46.684Z,15.7816
2023-05-12T00:14:48.238Z,15.7397
2023-05-12T00:15:49.873Z,15.6738
2023-05-12T00:16:51.734Z,15.6092
2023-05-12T00:17:53.274Z,15.6083
2023-05-12T00:18:54.855Z,15.6084
2023-05-12T00:19:56.915Z,15.6184
2023-05-12T00:20:58.983Z,15.6789
2023-05-12T00:21:59.748Z,15.7732
2023-05-12T00:23:01.343Z,15.7974
2023-05-12T00:24:03.094Z,15.7145
2023-05-12T00:25:04.702Z,15.6670
2023-05-12T00:26:06.311Z,15.6225
2023-05-12T00:27:07.905Z,15.5715
2023-05-12T00:28:09.698Z,15.5560
2023-05-12T00:29:11.318Z,15.5753
2023-05-12T00:30:12.939Z,15.6120
2023-05-12T00:31:14.551Z,15.6516
2023-05-12T00:32:16.199Z,15.7021
2023-05-12T00:33:17.835Z,15.7073
2023-05-12T00:34:19.593Z,15.6823
2023-05-12T00:35:21.086Z,15.6418
2023-05-12T00:36:22.806Z,15.6244
2023-05-12T00:37:24.406Z,15.6100
2023-05-12T00:38:26.057Z,15.6202
2023-05-12T00:39:27.796Z,15.6542
2023-05-12T00:40:29.398Z,15.7200
2023-05-12T00:41:30.999Z,15.7285
2023-05-12T00:42:32.725Z,15.6493
2023-05-12T00:43:34.329Z,15.6175
2023-05-12T00:44:36.000Z,15.6178
2023-05-12T00:45:37.718Z,15.6042
2023-05-12T00:46:39.240Z,15.6472
2023-05-12T00:47:40.917Z,15.6819
2023-05-12T00:48:42.570Z,15.7330
2023-05-12T00:49:44.284Z,15.7489
2023-05-12T00:50:45.901Z,15.6935
2023-05-12T00:51:47.513Z,15.6219
2023-05-12T00:52:49.189Z,15.5987
2023-05-12T00:53:50.933Z,15.5973
2023-05-12T00:54:52.606Z,15.6050
2023-05-12T00:55:54.161Z,15.6281
2023-05-12T00:56:55.930Z,15.7073
2023-05-12T00:57:57.482Z,15.7520
2023-05-12T00:58:59.133Z,15.7774
2023-05-12T01:00:00.862Z,15.7250
2023-05-12T01:01:02.468Z,15.6477
2023-05-12T01:02:04.061Z,15.5850
2023-05-12T01:03:05.923Z,15.5823
2023-05-12T01:04:07.372Z,15.5996
2023-05-12T01:05:09.088Z,15.5975
2023-05-12T01:06:10.641Z,15.5924
2023-05-12T01:07:12.336Z,15.6175
2023-05-12T01:08:13.925Z,15.6358
2023-05-12T01:09:15.622Z,15.6480
2023-05-12T01:10:17.373Z,15.6347
2023-05-12T01:11:18.897Z,15.5859
2023-05-12T01:12:20.505Z,15.5442
2023-05-12T01:13:22.218Z,15.5356
2023-05-12T01:14:23.938Z,15.5663
2023-05-12T01:15:25.645Z,15.5904
2023-05-12T01:16:27.123Z,15.6271
2023-05-12T01:17:28.897Z,15.6430
2023-05-12T01:18:30.566Z,15.6660
2023-05-12T01:19:32.172Z,15.6253
2023-05-12T01:20:33.730Z,15.5950
2023-05-12T01:21:35.482Z,15.5994
2023-05-12T01:22:37.909Z,15.6074
2023-05-12T01:23:38.712Z,15.6193
2023-05-12T01:24:40.399Z,15.6226
2023-05-12T01:25:42.049Z,15.6254
2023-05-12T01:26:43.675Z,15.5954
2023-05-12T01:27:45.396Z,15.5807
2023-05-12T01:28:46.960Z,15.5871
2023-05-12T01:29:48.665Z,15.6022
2023-05-12T01:30:50.366Z,15.6202
2023-05-12T01:31:51.902Z,15.6173
2023-05-12T01:32:53.571Z,15.5818
2023-05-12T01:33:55.189Z,15.5708
2023-05-12T01:34:56.854Z,15.5511
2023-05-12T01:35:58.562Z,15.5730
2023-05-12T01:37:00.164Z,15.5907
2023-05-12T01:38:02.138Z,15.5944
2023-05-12T01:39:03.455Z,15.5823
2023-05-12T01:40:05.071Z,15.5746
2023-05-12T01:41:06.788Z,15.5867
2023-05-12T01:42:08.444Z,15.5924
2023-05-12T01:43:10.070Z,15.5771
2023-05-12T01:44:11.699Z,15.5980
2023-05-12T01:45:13.358Z,15.5851
2023-05-12T01:46:15.503Z,15.5690
2023-05-12T01:47:16.713Z,15.5557
2023-05-12T01:48:18.272Z,15.5696
2023-05-12T01:49:19.950Z,15.5779
2023-05-12T01:50:21.800Z,15.5725
2023-05-12T01:51:23.346Z,15.6255
2023-05-12T01:52:24.907Z,15.6031
2023-05-12T01:53:26.615Z,15.5824
2023-05-12T01:54:28.184Z,15.5661
2023-05-12T01:55:29.846Z,15.5544
2023-05-12T01:56:32.480Z,15.5691
2023-05-12T01:57:33.130Z,15.5893
2023-05-12T01:58:34.804Z,15.5756
2023-05-12T01:59:36.398Z,15.5619
2023-05-12T02:00:38.172Z,15.5323
2023-05-12T02:01:39.750Z,15.5208
2023-05-12T02:02:43.071Z,15.5156
2023-05-12T02:03:43.166Z,15.5671
2023-05-12T02:04:44.750Z,15.5575
2023-05-12T02:05:46.275Z,15.5049
2023-05-12T02:06:47.996Z,15.5011
2023-05-12T02:07:49.627Z,15.5309
2023-05-12T02:08:51.967Z,15.5523
2023-05-12T02:09:52.859Z,15.5528
2023-05-12T02:10:54.553Z,15.5415
2023-05-12T02:11:56.282Z,15.5332
2023-05-12T02:12:57.912Z,15.5121
2023-05-12T02:13:59.462Z,15.5164
2023-05-12T02:15:01.231Z,15.5522
2023-05-12T02:16:02.898Z,15.5777
2023-05-12T02:17:04.548Z,15.5857
2023-05-12T02:18:06.175Z,15.6308
2023-05-12T02:19:07.805Z,15.6242
2023-05-12T02:20:09.397Z,15.5867
2023-05-12T02:21:11.037Z,15.5904
2023-05-12T02:22:12.689Z,15.6195
2023-05-12T02:23:14.347Z,15.6220
2023-05-12T02:24:15.918Z,15.6245
2023-05-12T02:25:17.606Z,15.6398
2023-05-12T02:26:19.194Z,15.6434
2023-05-12T02:27:20.938Z,15.6116
2023-05-12T02:28:22.567Z,15.5721
2023-05-12T02:29:24.239Z,15.5293
2023-05-12T02:30:25.823Z,15.5429
2023-05-12T02:31:27.605Z,15.5872
2023-05-12T02:32:29.505Z,15.6066
2023-05-12T02:33:30.819Z,15.6267
2023-05-12T02:34:32.475Z,15.6399
2023-05-12T02:35:34.096Z,15.6054
2023-05-12T02:36:35.727Z,15.5734
2023-05-12T02:37:37.505Z,15.5483
2023-05-12T02:38:39.001Z,15.5842
2023-05-12T02:39:40.680Z,15.5787
2023-05-12T02:40:42.324Z,15.5680
2023-05-12T02:41:44.955Z,15.5703
2023-05-12T02:42:45.588Z,15.5438
2023-05-12T02:43:47.206Z,15.5224
2023-05-12T02:44:48.855Z,15.5047
2023-05-12T02:45:50.642Z,15.4897
2023-05-12T02:46:52.120Z,15.4870
2023-05-12T02:47:53.926Z,15.5148
2023-05-12T02:48:55.479Z,15.5538
2023-05-12T02:49:57.104Z,15.5575
2023-05-12T02:50:58.720Z,15.5434
2023-05-12T02:52:00.418Z,15.5570
2023-05-12T02:53:02.085Z,15.6462
2023-05-12T02:54:03.674Z,15.9295
2023-05-12T02:55:05.359Z,16.3336
2023-05-12T02:56:06.992Z,16.8589
2023-05-12T02:57:08.639Z,17.6226
2023-05-12T02:58:10.307Z,18.1603
2023-05-12T02:59:11.945Z,18.1127
2023-05-12T03:00:13.580Z,17.9248
2023-05-12T03:01:15.212Z,17.6687
2023-05-12T03:02:16.892Z,17.5727
2023-05-12T03:03:18.553Z,17.6584
2023-05-12T03:04:20.142Z,17.8763
2023-05-12T03:05:21.803Z,17.9482
2023-05-12T03:06:23.460Z,17.8648
2023-05-12T03:07:25.146Z,17.6728
2023-05-12T03:08:26.818Z,17.5008
2023-05-12T03:09:28.370Z,17.5273
2023-05-12T03:10:30.051Z,17.6331
2023-05-12T03:11:31.652Z,17.7791
2023-05-12T03:12:33.288Z,17.8798
2023-05-12T03:13:35.440Z,17.8443
2023-05-12T03:14:36.657Z,17.6902
2023-05-12T03:15:38.237Z,17.5845
2023-05-12T03:16:40.553Z,17.5012
2023-05-12T03:17:41.581Z,17.4720
2023-05-12T03:18:43.229Z,17.5151
2023-05-12T03:19:44.802Z,17.6664
2023-05-12T03:20:46.518Z,17.7582
2023-05-12T03:21:48.084Z,17.7432
2023-05-12T03:22:49.770Z,17.6396
2023-05-12T03:23:51.452Z,17.6002
2023-05-12T03:24:53.072Z,17.5501
2023-05-12T03:25:54.668Z,17.5328
2023-05-12T03:26:56.320Z,17.6055
2023-05-12T03:27:57.972Z,17.7163
2023-05-12T03:28:59.674Z,17.8093
2023-05-12T03:30:01.252Z,17.8407
2023-05-12T03:31:03.117Z,17.7979
2023-05-12T03:32:04.585Z,17.7216
2023-05-12T03:33:06.253Z,17.6603
2023-05-12T03:34:07.915Z,17.6161
2023-05-12T03:35:09.633Z,17.6307
2023-05-12T03:36:11.139Z,17.7189
2023-05-12T03:37:12.859Z,17.7754
2023-05-12T03:38:14.440Z,17.8074
2023-05-12T03:39:16.191Z,17.7901
2023-05-12T03:40:18.975Z,17.7442
2023-05-12T03:41:19.407Z,17.6707
2023-05-12T03:42:21.048Z,17.6314
2023-05-12T03:43:22.761Z,17.5774
2023-05-12T03:44:24.363Z,17.5913
2023-05-12T03:45:26.062Z,17.6869
2023-05-12T03:46:27.661Z,17.7738
2023-05-12T03:47:29.463Z,17.8532
2023-05-12T03:48:30.971Z,17.9264
2023-05-12T03:49:32.567Z,17.9694
2023-05-12T03:50:34.258Z,17.9663
2023-05-12T03:51:35.978Z,17.9520
2023-05-12T03:52:37.513Z,17.9311
2023-05-12T03:53:39.188Z,17.9047
2023-05-12T03:54:40.809Z,17.8844
2023-05-12T03:55:42.965Z,17.8807
2023-05-12T03:56:44.133Z,17.9125
2023-05-12T03:57:45.744Z,17.9223
2023-05-12T03:58:47.436Z,17.9871
2023-05-12T03:59:49.102Z,17.9748
2023-05-12T04:00:50.732Z,17.9089
2023-05-12T04:01:52.392Z,17.9242
2023-05-12T04:02:54.038Z,17.9628
2023-05-12T04:03:55.729Z,18.0289
2023-05-12T04:04:57.281Z,17.9960
2023-05-12T04:05:58.967Z,17.9454
2023-05-12T04:07:00.650Z,17.9247
2023-05-12T04:08:02.228Z,17.9767
2023-05-12T04:09:03.896Z,17.9854
2023-05-12T04:10:05.540Z,17.9373
2023-05-12T04:11:07.481Z,17.9010
2023-05-12T04:12:08.793Z,17.9287
2023-05-12T04:13:10.460Z,17.8876
2023-05-12T04:14:12.083Z,17.8902
2023-05-12T04:15:13.799Z,17.9219
2023-05-12T04:16:15.524Z,17.8663
2023-05-12T04:17:17.041Z,17.8831
2023-05-12T04:18:18.697Z,17.9186
2023-05-12T04:19:20.329Z,17.8909
2023-05-12T04:20:22.121Z,17.9650
2023-05-12T04:21:24.494Z,18.0741
2023-05-12T04:22:25.817Z,18.1216
2023-05-12T04:23:26.945Z,18.0817
2023-05-12T04:24:28.648Z,18.0673
2023-05-12T04:25:30.234Z,18.0496
2023-05-12T04:26:31.872Z,18.1109
2023-05-12T04:27:33.526Z,18.1909
2023-05-12T04:28:35.176Z,18.1804
2023-05-12T04:29:36.825Z,18.1445
2023-05-12T04:30:38.470Z,18.1348
2023-05-12T04:31:40.177Z,18.1158
2023-05-12T04:32:41.789Z,18.0828
2023-05-12T04:33:43.464Z,18.0698
2023-05-12T04:34:45.951Z,18.0209
2023-05-12T04:35:47.453Z,18.0207
2023-05-12T04:36:48.389Z,18.0042
2023-05-12T04:37:50.973Z,18.0175
2023-05-12T04:38:51.699Z,18.1332
2023-05-12T04:39:53.280Z,18.2641
2023-05-12T04:40:54.914Z,18.1987
2023-05-12T04:41:56.666Z,18.1444
2023-05-12T04:42:58.232Z,18.1732
2023-05-12T04:44:00.380Z,18.2840
2023-05-12T04:45:01.505Z,18.3445
2023-05-12T04:46:03.222Z,18.3728
2023-05-12T04:47:04.875Z,18.3233
2023-05-12T04:48:07.501Z,18.2650
2023-05-12T04:49:09.095Z,18.2547
2023-05-12T04:50:09.950Z,18.3672
2023-05-12T04:51:11.604Z,18.4546
2023-05-12T04:52:13.228Z,18.4820
2023-05-12T04:53:14.828Z,18.4724
2023-05-12T04:54:16.495Z,18.6059
2023-05-12T04:55:18.429Z,18.8403
2023-05-12T04:56:19.883Z,19.2682
2023-05-12T04:57:21.653Z,19.7347
2023-05-12T04:58:23.141Z,20.0232
2023-05-12T04:59:24.731Z,20.1378
2023-05-12T05:00:26.516Z,20.2697
2023-05-12T05:01:28.106Z,20.5807
2023-05-12T05:02:30.270Z,20.9018
2023-05-12T05:03:31.492Z,21.0630
2023-05-12T05:04:33.047Z,21.0522
2023-05-12T05:05:34.658Z,21.0475
2023-05-12T05:06:36.306Z,21.2216
2023-05-12T05:07:38.947Z,21.4436
2023-05-12T05:08:40.443Z,21.6007
2023-05-12T05:09:41.291Z,21.5754
2023-05-12T05:10:42.868Z,21.5460
2023-05-12T05:11:44.586Z,21.6758
2023-05-12T05:12:46.171Z,21.8728
2023-05-12T05:13:47.841Z,22.0023
2023-05-12T05:14:50.425Z,22.0281
2023-05-12T05:15:51.295Z,21.9576
2023-05-12T05:16:52.750Z,21.9490
2023-05-12T05:17:54.647Z,22.1038
2023-05-12T05:18:57.614Z,21.9750
2023-05-12T05:19:59.226Z,21.9776
2023-05-12T05:20:59.522Z,22.0545
2023-05-12T05:22:01.021Z,22.0136
2023-05-12T05:23:02.724Z,22.1032
2023-05-12T05:24:04.346Z,22.3228
2023-05-12T05:25:05.930Z,22.2416
2023-05-12T05:26:07.667Z,22.3070
2023-05-12T05:27:09.230Z,22.3308
2023-05-12T05:28:10.966Z,22.2881
2023-05-12T05:29:12.548Z,22.5029
2023-05-12T05:30:14.256Z,22.6496
2023-05-12T05:31:15.866Z,22.5978
2023-05-12T05:32:17.499Z,22.6752
2023-05-12T05:33:19.250Z,22.5577
2023-05-12T05:34:20.812Z,22.5970
2023-05-12T05:35:22.635Z,22.7996
2023-05-12T05:36:24.046Z,22.6392
2023-05-12T05:37:25.717Z,22.6245
2023-05-12T05:38:28.225Z,22.7069
2023-05-12T05:39:28.958Z,22.6819
2023-05-12T05:40:38.536Z,22.7486
2023-05-12T05:41:32.471Z,22.8678
2023-05-12T05:42:34.058Z,22.7915
2023-05-12T05:43:35.623Z,22.8038
2023-05-12T05:44:37.182Z,22.6731
2023-05-12T05:45:38.888Z,22.6665
2023-05-12T05:46:40.547Z,22.9400
2023-05-12T05:47:42.220Z,22.8296
2023-05-12T05:48:43.859Z,22.8392
2023-05-12T05:49:45.468Z,22.8128
2023-05-12T05:50:47.089Z,22.7120
2023-05-12T05:51:48.751Z,22.9120
2023-05-12T05:52:50.404Z,23.1698
2023-05-12T05:53:52.107Z,23.1148
2023-05-12T05:54:53.714Z,22.9887
2023-05-12T05:55:55.694Z,22.9333
2023-05-12T05:56:57.264Z,23.0553
2023-05-12T05:57:58.710Z,23.2768
2023-05-12T05:59:00.272Z,23.3768
2023-05-12T06:00:01.999Z,23.4273
2023-05-12T06:01:04.091Z,23.4096
2023-05-12T06:02:05.294Z,23.2693
2023-05-12T06:03:06.991Z,23.3855
2023-05-12T06:04:09.544Z,23.4295
2023-05-12T06:05:10.146Z,23.1446
2023-05-12T06:06:12.957Z,23.2411
2023-05-12T06:07:13.452Z,23.3221
2023-05-12T06:08:15.035Z,23.2674
2023-05-12T06:09:16.734Z,23.4431
2023-05-12T06:10:18.622Z,23.4448
2023-05-12T06:11:19.983Z,23.4791
2023-05-12T06:12:21.570Z,23.6404
2023-05-12T06:13:23.245Z,23.6239
2023-05-12T06:14:25.100Z,23.5487
2023-05-12T06:15:26.584Z,23.6372
2023-05-12T06:16:28.240Z,23.4834
2023-05-12T06:17:32.066Z,23.3890
2023-05-12T06:18:31.490Z,23.5984
2023-05-12T06:19:33.722Z,23.5810
2023-05-12T06:20:34.769Z,23.6210
2023-05-12T06:21:36.428Z,23.8145
2023-05-12T06:22:38.056Z,23.7344
2023-05-12T06:23:39.774Z,23.5419
2023-05-12T06:24:41.401Z,23.6559
2023-05-12T06:25:43.029Z,23.6069
2023-05-12T06:26:44.675Z,23.6871
2023-05-12T06:27:46.316Z,23.8489
2023-05-12T06:28:47.984Z,23.7404
2023-05-12T06:29:49.604Z,23.4517
2023-05-12T06:30:51.220Z,23.3366
2023-05-12T06:31:52.902Z,23.0660
2023-05-12T06:32:54.519Z,22.8993
2023-05-12T06:33:56.159Z,22.7778
2023-05-12T06:34:57.846Z,22.5285
2023-05-12T06:35:59.543Z,22.4074
2023-05-12T06:37:01.074Z,22.3995
2023-05-12T06:38:02.805Z,22.2822
2023-05-12T06:39:04.418Z,22.2866
2023-05-12T06:40:06.072Z,22.3187
2023-05-12T06:41:08.669Z,22.2413
2023-05-12T06:42:09.385Z,22.1816
2023-05-12T06:43:10.978Z,22.0516
2023-05-12T06:44:12.643Z,21.9773
2023-05-12T06:45:14.287Z,21.9756
2023-05-12T06:46:16.030Z,21.9311
2023-05-12T06:47:17.544Z,21.8456
2023-05-12T06:48:19.172Z,21.7481
2023-05-12T06:49:20.796Z,21.6587
2023-05-12T06:50:22.572Z,21.7779
2023-05-12T06:51:24.135Z,21.9528
2023-05-12T06:52:26.490Z,21.9973
2023-05-12T06:53:27.371Z,21.7267
2023-05-12T06:54:29.144Z,21.6129
2023-05-12T06:55:30.717Z,21.5572
2023-05-12T06:56:32.453Z,21.6647
2023-05-12T06:57:34.047Z,21.7891
2023-05-12T06:58:35.619Z,21.7873
2023-05-12T06:59:37.304Z,21.5845
2023-05-12T07:00:39.669Z,21.4352
2023-05-12T07:01:40.691Z,21.3628
2023-05-12T07:02:42.280Z,21.4587
2023-05-12T07:03:43.855Z,21.6563
2023-05-12T07:04:45.625Z,21.6430
2023-05-12T07:05:47.189Z,21.5001
2023-05-12T07:06:48.912Z,21.3536
2023-05-12T07:07:50.576Z,21.2509
2023-05-12T07:08:52.157Z,21.3999
2023-05-12T07:09:53.738Z,21.5871
2023-05-12T07:10:55.467Z,21.5946
2023-05-12T07:11:57.126Z,21.4284
2023-05-12T07:12:58.722Z,21.2968
2023-05-12T07:14:00.377Z,21.1945
2023-05-12T07:15:02.017Z,21.3042
2023-05-12T07:16:03.626Z,21.4850
2023-05-12T07:17:05.242Z,21.5269
2023-05-12T07:18:06.991Z,21.3549
2023-05-12T07:19:08.672Z,21.3784
2023-05-12T07:20:10.172Z,21.3735
2023-05-12T07:21:11.867Z,21.4794
2023-05-12T07:22:16.179Z,21.6145
2023-05-12T07:23:15.049Z,21.5768
2023-05-12T07:24:16.708Z,21.3464
2023-05-12T07:25:19.150Z,21.1858
2023-05-12T07:26:21.648Z,21.1455
2023-05-12T07:27:21.624Z,21.3096
2023-05-12T07:28:23.276Z,21.4796
2023-05-12T07:29:24.914Z,21.4830
2023-05-12T07:30:26.660Z,21.3267
2023-05-12T07:31:29.197Z,21.2540
2023-05-12T07:32:29.920Z,21.3150
2023-05-12T07:33:32.683Z,21.5348
2023-05-12T07:34:33.208Z,21.7673
2023-05-12T07:35:34.949Z,21.7236
2023-05-12T07:36:36.574Z,21.5188
2023-05-12T07:37:38.356Z,21.4080
2023-05-12T07:38:39.905Z,21.4218
2023-05-12T07:39:41.554Z,21.6027
2023-05-12T07:40:43.140Z,21.8061
2023-05-12T07:41:44.876Z,21.8168
2023-05-12T07:42:46.429Z,21.6602
2023-05-12T07:43:48.276Z,21.4260
2023-05-12T07:44:49.706Z,21.3035
2023-05-12T07:45:51.441Z,21.4513
2023-05-12T07:46:54.100Z,21.6448
2023-05-12T07:47:55.557Z,21.5970
2023-05-12T07:48:56.266Z,21.3747
2023-05-12T07:49:58.693Z,21.1916
2023-05-12T07:50:59.543Z,21.1465
2023-05-12T07:52:01.270Z,21.2919
2023-05-12T07:53:02.856Z,21.4427
2023-05-12T07:54:04.540Z,21.4444
2023-05-12T07:55:06.158Z,21.1957
2023-05-12T07:56:07.861Z,21.0535
2023-05-12T07:57:09.478Z,21.0837
2023-05-12T07:58:11.059Z,21.2695
2023-05-12T07:59:12.754Z,21.4615
2023-05-12T08:00:14.413Z,21.4599
2023-05-12T08:01:16.109Z,21.2744
2023-05-12T08:02:18.202Z,21.1770
2023-05-12T08:03:19.403Z,21.1596
2023-05-12T08:04:21.027Z,21.3123
2023-05-12T08:05:22.701Z,21.5409
2023-05-12T08:06:25.026Z,21.5391
2023-05-12T08:07:26.195Z,21.3640
2023-05-12T08:08:27.516Z,21.2398
2023-05-12T08:09:29.221Z,21.2981
2023-05-12T08:10:30.843Z,21.4215
2023-05-12T08:11:32.475Z,21.6082
2023-05-12T08:12:34.131Z,21.5293
2023-05-12T08:13:35.733Z,21.3250
2023-05-12T08:14:37.335Z,21.1162
2023-05-12T08:15:39.045Z,21.0740
2023-05-12T08:16:40.739Z,21.2400
2023-05-12T08:17:42.359Z,21.4438
2023-05-12T08:18:43.986Z,21.5092
2023-05-12T08:19:45.571Z,21.2273
2023-05-12T08:20:47.249Z,21.1128
2023-05-12T08:21:48.878Z,21.0691
2023-05-12T08:22:52.173Z,21.1747
2023-05-12T08:23:53.209Z,21.3535
2023-05-12T08:24:54.044Z,21.4185
2023-05-12T08:25:55.600Z,21.1701
2023-05-12T08:26:57.359Z,20.9737
2023-05-12T08:27:58.976Z,20.9383
2023-05-12T08:29:00.599Z,21.0766
2023-05-12T08:30:02.223Z,21.3155
2023-05-12T08:31:05.127Z,21.4586
2023-05-12T08:32:05.421Z,21.2980
2023-05-12T08:33:07.213Z,21.2066
2023-05-12T08:34:10.906Z,21.1550
2023-05-12T08:35:10.391Z,21.2693
2023-05-12T08:36:11.987Z,21.4727
2023-05-12T08:37:13.783Z,21.6651
2023-05-12T08:38:15.662Z,21.6095
2023-05-12T08:39:16.957Z,21.3796
2023-05-12T08:40:18.571Z,21.3215
2023-05-12T08:41:20.257Z,21.3262
2023-05-12T08:42:21.960Z,21.5394
2023-05-12T08:43:23.624Z,21.7266
2023-05-12T08:44:25.172Z,21.7228
2023-05-12T08:45:26.913Z,21.3937
2023-05-12T08:46:28.509Z,21.2767
2023-05-12T08:47:30.145Z,21.1395
2023-05-12T08:48:31.788Z,21.3122
2023-05-12T08:49:33.495Z,21.5993
2023-05-12T08:50:35.128Z,21.7378
2023-05-12T08:51:36.721Z,21.5281
2023-05-12T08:52:38.363Z,21.4071
2023-05-12T08:53:40.057Z,21.3379
2023-05-12T08:54:52.414Z,21.4553
2023-05-12T08:55:48.224Z,21.7151
2023-05-12T08:57:46.627Z,21.6741
2023-05-12T08:58:48.222Z,21.4701
2023-05-12T08:59:49.969Z,21.4116
2023-05-12T09:00:51.604Z,21.3749
2023-05-12T09:01:53.363Z,21.5477
2023-05-12T09:02:55.118Z,21.7561
2023-05-12T09:03:56.598Z,21.6924
2023-05-12T09:04:58.192Z,21.4639
2023-05-12T09:05:59.836Z,21.3221
2023-05-12T09:07:01.459Z,21.2939
2023-05-12T09:08:03.112Z,21.5173
2023-05-12T09:09:04.763Z,21.7329
2023-05-12T09:10:06.419Z,21.6859
2023-05-12T09:11:08.086Z,21.3840
2023-05-12T09:12:10.556Z,21.2715
2023-05-12T09:13:11.343Z,21.2317
2023-05-12T09:14:13.049Z,21.3934
2023-05-12T09:15:14.729Z,21.6186
2023-05-12T09:16:16.334Z,21.6821
2023-05-12T09:17:17.992Z,21.4586
2023-05-12T09:18:19.623Z,21.3845
2023-05-12T09:19:21.186Z,21.3988
2023-05-12T09:20:30.818Z,21.6308
2023-05-12T09:21:24.438Z,21.9183
2023-05-12T09:22:26.084Z,22.0430
2023-05-12T09:23:27.742Z,21.7881
2023-05-12T09:24:29.387Z,21.7199
2023-05-12T09:25:31.078Z,21.6585
2023-05-12T09:26:32.704Z,21.9219
2023-05-12T09:27:34.389Z,22.2371
2023-05-12T09:28:36.020Z,22.3445
2023-05-12T09:29:45.310Z,22.0503
2023-05-12T09:30:39.317Z,21.9175
2023-05-12T09:31:40.959Z,21.8782
2023-05-12T09:32:42.548Z,22.1015
2023-05-12T09:33:44.217Z,22.3882
2023-05-12T09:34:46.595Z,22.5064
2023-05-12T09:35:47.543Z,22.3676
2023-05-12T09:36:49.156Z,22.2871
2023-05-12T09:37:51.846Z,22.1322
2023-05-12T09:38:52.595Z,22.2836
2023-05-12T09:39:54.192Z,22.4962
2023-05-12T09:40:55.873Z,22.4863
2023-05-12T09:41:57.552Z,22.3880
2023-05-12T09:42:59.144Z,22.2373
2023-05-12T09:44:00.894Z,22.1672
2023-05-12T09:45:02.478Z,22.3052
2023-05-12T09:46:04.139Z,22.5012
2023-05-12T09:47:05.800Z,22.4340
2023-05-12T09:48:07.442Z,22.2988
2023-05-12T09:49:09.111Z,22.1308
2023-05-12T09:50:10.741Z,22.0765
2023-05-12T09:51:12.376Z,22.3405
2023-05-12T09:52:14.036Z,22.5019
2023-05-12T09:53:15.709Z,22.2135
2023-05-12T09:54:18.281Z,21.8946
2023-05-12T09:55:19.068Z,21.8942
2023-05-12T09:56:20.645Z,22.0822
2023-05-12T09:57:22.248Z,22.3739
2023-05-12T09:58:23.891Z,22.5187
2023-05-12T09:59:25.576Z,22.4158
2023-05-12T10:00:41.293Z,22.3821
2023-05-12T10:01:28.873Z,22.3479
2023-05-12T10:02:30.725Z,22.4094
2023-05-12T10:03:32.099Z,22.6013
2023-05-12T10:04:33.802Z,22.6481
2023-05-12T10:05:35.400Z,22.4710
2023-05-12T10:06:37.748Z,22.4434
2023-05-12T10:07:38.802Z,22.4147
2023-05-12T10:08:40.509Z,22.5051
2023-05-12T10:09:41.999Z,22.7307
2023-05-12T10:10:43.612Z,22.6902
2023-05-12T10:11:45.348Z,22.5704
2023-05-12T10:12:46.957Z,22.4637
2023-05-12T10:13:48.597Z,22.3525
2023-05-12T10:14:50.207Z,22.4582
2023-05-12T10:15:51.954Z,22.5929
2023-05-12T10:16:54.268Z,22.4883
2023-05-12T10:17:55.264Z,22.3896
2023-05-12T10:18:56.898Z,22.3281
2023-05-12T10:19:58.449Z,22.3065
2023-05-12T10:21:00.240Z,22.4705
2023-05-12T10:22:02.346Z,22.6833
2023-05-12T10:23:03.419Z,22.5335
2023-05-12T10:24:05.053Z,22.4298
2023-05-12T10:25:06.673Z,22.3318
2023-05-12T10:26:08.337Z,22.2783
2023-05-12T10:27:10.752Z,22.3200
2023-05-12T10:28:11.784Z,22.5288
2023-05-12T10:29:13.296Z,22.5304
2023-05-12T10:30:14.944Z,22.5089
2023-05-12T10:31:16.712Z,22.4239
2023-05-12T10:32:19.292Z,22.5119
2023-05-12T10:33:20.358Z,22.7608
2023-05-12T10:34:21.662Z,22.8414
2023-05-12T10:35:23.171Z,22.7505
2023-05-12T10:36:24.844Z,22.7174
2023-05-12T10:37:27.216Z,22.6428
2023-05-12T10:38:28.158Z,22.6858
2023-05-12T10:39:29.718Z,22.8039
2023-05-12T10:40:32.381Z,22.7795
2023-05-12T10:41:33.049Z,22.6917
2023-05-12T10:42:35.275Z,22.5697
2023-05-12T10:43:36.372Z,22.5026
2023-05-12T10:44:38.022Z,22.6025
2023-05-12T10:45:39.663Z,22.7165
2023-05-12T10:46:41.317Z,22.5606
2023-05-12T10:47:43.059Z,22.4264
2023-05-12T10:48:44.597Z,22.3698
2023-05-12T10:49:46.264Z,22.3812
2023-05-12T10:50:47.858Z,22.5036
2023-05-12T10:51:49.524Z,22.5902
2023-05-12T10:52:51.172Z,22.4331
2023-05-12T10:53:54.860Z,22.3130
2023-05-12T10:54:54.509Z,22.1900
2023-05-12T10:55:56.288Z,22.2037
2023-05-12T10:56:57.964Z,22.3915
2023-05-12T10:58:00.154Z,22.4920
2023-05-12T10:59:01.468Z,22.4080
2023-05-12T11:00:03.835Z,22.3737
2023-05-12T11:01:05.055Z,22.3483
2023-05-12T11:02:06.975Z,22.3431
2023-05-12T11:03:10.441Z,22.4726
2023-05-12T11:04:09.410Z,22.6079
2023-05-12T11:05:11.223Z,22.4942
2023-05-12T11:06:12.806Z,22.3998
2023-05-12T11:07:14.707Z,22.3694
2023-05-12T11:08:16.061Z,22.4007
2023-05-12T11:09:18.002Z,22.5624
2023-05-12T11:10:19.706Z,22.7238
2023-05-12T11:11:20.870Z,22.5565
2023-05-12T11:12:22.583Z,22.5046
2023-05-12T11:13:24.192Z,22.4589
2023-05-12T11:14:25.819Z,22.6648
2023-05-12T11:15:27.491Z,23.0583
2023-05-12T11:16:29.155Z,23.0794
2023-05-12T11:17:30.784Z,22.8908
2023-05-12T11:18:32.442Z,22.8196
2023-05-12T11:19:34.074Z,22.7890
2023-05-12T11:20:35.628Z,22.9161
2023-05-12T11:21:37.371Z,23.1133
2023-05-12T11:22:38.979Z,23.0377
2023-05-12T11:23:40.704Z,22.9333
2023-05-12T11:24:42.298Z,23.0010
2023-05-12T11:25:44.451Z,23.0243
2023-05-12T11:26:45.620Z,23.1261
2023-05-12T11:27:47.598Z,23.1708
2023-05-12T11:28:48.913Z,22.9011
2023-05-12T11:29:52.368Z,22.8471
2023-05-12T11:30:54.699Z,22.7950
2023-05-12T11:31:53.876Z,22.7933
2023-05-12T11:32:55.429Z,22.9472
2023-05-12T11:34:10.846Z,22.9598
2023-05-12T11:34:58.801Z,22.8700
2023-05-12T11:36:00.464Z,22.8323
2023-05-12T11:37:02.067Z,22.8934
2023-05-12T11:38:03.742Z,23.0484
2023-05-12T11:39:05.387Z,23.2250
2023-05-12T11:40:07.090Z,23.0405
2023-05-12T11:41:08.620Z,22.8310
2023-05-12T11:42:13.433Z,22.7172
2023-05-12T11:43:12.047Z,22.7090
2023-05-12T11:44:13.663Z,22.9079
2023-05-12T11:45:15.254Z,23.0475
2023-05-12T11:46:17.011Z,22.7480
2023-05-12T11:47:18.588Z,22.3574
2023-05-12T11:48:20.339Z,22.1773
2023-05-12T11:49:22.293Z,22.2687
2023-05-12T11:50:23.568Z,22.6006
2023-05-12T11:51:25.120Z,22.7501
2023-05-12T11:52:26.806Z,22.3432
2023-05-12T11:53:28.499Z,22.1993
2023-05-12T11:54:30.148Z,22.3447
2023-05-12T11:55:31.720Z,22.4904
2023-05-12T11:56:33.429Z,22.6622
2023-05-12T11:57:35.756Z,22.7256
2023-05-12T11:58:36.683Z,22.3097
2023-05-12T11:59:38.797Z,22.1885
2023-05-12T12:00:40.052Z,22.2901
2023-05-12T12:01:41.609Z,22.5272
2023-05-12T12:02:43.471Z,22.8101
2023-05-12T12:03:45.037Z,22.7191
2023-05-12T12:04:46.641Z,22.3819
2023-05-12T12:05:48.194Z,22.4264
2023-05-12T12:06:49.893Z,22.5771
2023-05-12T12:07:51.491Z,22.7871
2023-05-12T12:08:53.130Z,22.9380
2023-05-12T12:09:54.821Z,22.6081
2023-05-12T12:10:57.273Z,22.2478
2023-05-12T12:11:58.104Z,22.2567
2023-05-12T12:13:00.289Z,22.4181
2023-05-12T12:14:01.416Z,22.6594
2023-05-12T12:15:04.018Z,22.8422
2023-05-12T12:16:05.635Z,22.4037
2023-05-12T12:17:06.338Z,22.1859
2023-05-12T12:18:08.099Z,22.2151
2023-05-12T12:19:09.813Z,22.4060
2023-05-12T12:20:11.384Z,22.6850
2023-05-12T12:21:12.953Z,22.7892
2023-05-12T12:22:14.581Z,22.3511
2023-05-12T12:23:16.169Z,22.3217
2023-05-12T12:24:18.772Z,22.4597
2023-05-12T12:25:19.822Z,22.7417
2023-05-12T12:26:21.176Z,23.1072